Time;durP1;ratioP1;P1;durP2;ratioP2;P2;SDS_P1;SDS_P2;PMS_P1;PMS_P2;Temp;Humidity;BMP_temperature;BMP_pressure;BME280_temperature;BME280_humidity;BME280_pressure;Samples;Min_cycle;Max_cycle;Signal;HPM_P1;HPM_P2
2022/03/17 00:02:02;;;;;;;26.63;22.67;;;;;;;;;;5027989;28;20049;-63
2022/03/17 00:04:28;;;;;;;26.90;20.88;;;;;;;;;;5029016;28;20045;-61
2022/03/17 00:06:54;;;;;;;29.77;24.60;;;;;;;;;;5029834;28;20033;-63
2022/03/17 00:09:20;;;;;;;20.60;17.17;;;;;;;;;;5028616;28;20440;-62
2022/03/17 00:11:47;;;;;;;30.80;25.48;;;;;;;;;;5030086;28;20383;-62
2022/03/17 00:14:14;;;;;;;29.83;24.27;;;;;;;;;;5030636;28;20287;-63
2022/03/17 00:16:40;;;;;;;30.25;25.15;;;;;;;;;;5029147;28;20507;-61
2022/03/17 00:19:08;;;;;;;29.35;24.42;;;;;;;;;;5029077;28;20061;-62
2022/03/17 00:21:38;;;;;;;30.75;24.35;;;;;;;;;;5029609;28;20037;-61
2022/03/17 00:24:06;;;;;;;29.98;24.83;;;;;;;;;;5029025;28;20061;-63
2022/03/17 00:26:34;;;;;;;27.02;23.30;;;;;;;;;;5029873;28;20045;-60
2022/03/17 00:29:02;;;;;;;33.13;26.35;;;;;;;;;;5029591;28;20522;-61
2022/03/17 00:31:28;;;;;;;32.67;27.67;;;;;;;;;;5029768;28;20056;-60
2022/03/17 00:33:54;;;;;;;31.20;25.38;;;;;;;;;;5030105;28;20081;-61
2022/03/17 00:36:20;;;;;;;32.63;27.10;;;;;;;;;;5029785;28;20037;-60
2022/03/17 00:38:48;;;;;;;30.40;24.33;;;;;;;;;;5030305;28;20038;-60
2022/03/17 00:41:15;;;;;;;27.88;21.65;;;;;;;;;;5029190;28;20044;-60
2022/03/17 00:43:42;;;;;;;30.35;23.30;;;;;;;;;;5029981;28;20127;-60
2022/03/17 00:46:08;;;;;;;32.20;26.65;;;;;;;;;;5011960;28;20049;-61
2022/03/17 00:48:34;;;;;;;32.65;26.90;;;;;;;;;;5029729;28;20045;-62
2022/03/17 00:51:00;;;;;;;32.80;26.83;;;;;;;;;;5028835;28;20456;-61
2022/03/17 00:53:26;;;;;;;32.13;25.02;;;;;;;;;;5042275;28;20041;-62
2022/03/17 00:55:52;;;;;;;30.48;24.17;;;;;;;;;;5028054;28;20049;-61
2022/03/17 00:58:18;;;;;;;32.67;26.02;;;;;;;;;;5026722;28;20040;-60
2022/03/17 01:00:44;;;;;;;32.63;25.55;;;;;;;;;;5029372;28;20041;-61
2022/03/17 01:03:10;;;;;;;31.60;24.30;;;;;;;;;;5027264;28;20060;-60
2022/03/17 01:05:36;;;;;;;31.67;22.10;;;;;;;;;;5028797;28;20418;-62
2022/03/17 01:08:02;;;;;;;31.98;26.67;;;;;;;;;;5028888;28;20073;-62
2022/03/17 01:10:28;;;;;;;31.40;25.73;;;;;;;;;;5036778;28;20049;-62
2022/03/17 01:12:56;;;;;;;31.10;26.55;;;;;;;;;;5029480;28;20049;-62
2022/03/17 01:15:22;;;;;;;33.65;25.83;;;;;;;;;;5029001;28;20041;-60
2022/03/17 01:17:48;;;;;;;28.63;23.05;;;;;;;;;;5028154;28;20053;-60
2022/03/17 01:20:14;;;;;;;32.53;27.75;;;;;;;;;;5026757;28;20045;-61
2022/03/17 01:22:41;;;;;;;33.13;27.05;;;;;;;;;;5026829;28;20546;-61
2022/03/17 01:25:07;;;;;;;33.42;28.15;;;;;;;;;;5009978;28;20054;-60
2022/03/17 01:27:34;;;;;;;33.40;27.83;;;;;;;;;;5025891;28;20088;-61
2022/03/17 01:30:00;;;;;;;33.10;28.30;;;;;;;;;;5027360;28;20068;-63
2022/03/17 01:32:26;;;;;;;33.83;26.27;;;;;;;;;;5027645;28;20518;-61
2022/03/17 01:34:52;;;;;;;33.53;27.25;;;;;;;;;;5043006;28;20146;-62
2022/03/17 01:37:18;;;;;;;30.88;25.73;;;;;;;;;;5010078;28;20041;-62
2022/03/17 01:39:44;;;;;;;30.92;26.33;;;;;;;;;;5027780;28;20051;-62
2022/03/17 01:42:11;;;;;;;30.70;26.65;;;;;;;;;;5042766;28;20117;-62
2022/03/17 01:44:38;;;;;;;32.22;22.45;;;;;;;;;;5027955;28;20072;-61
2022/03/17 01:49:50;;;;;;;29.48;24.92;;;;;;;;;;5026144;28;20132;-61
2022/03/17 01:52:16;;;;;;;32.50;27.42;;;;;;;;;;5026243;28;20037;-62
2022/03/17 01:54:43;;;;;;;33.15;28.27;;;;;;;;;;5025745;28;20060;-61
2022/03/17 01:57:10;;;;;;;33.72;27.13;;;;;;;;;;5025645;28;20044;-62
2022/03/17 01:59:37;;;;;;;31.85;26.23;;;;;;;;;;5025444;28;20029;-61
2022/03/17 02:02:06;;;;;;;31.20;23.13;;;;;;;;;;5026633;28;20029;-60
2022/03/17 02:04:33;;;;;;;33.13;25.83;;;;;;;;;;5027001;28;20041;-61
2022/03/17 02:06:59;;;;;;;32.97;26.35;;;;;;;;;;5028464;28;20379;-62
2022/03/17 02:09:26;;;;;;;27.85;20.42;;;;;;;;;;5028774;28;20099;-60
2022/03/17 02:14:47;;;;;;;31.35;24.80;;;;;;;;;;5027371;28;20048;-60
2022/03/17 02:17:14;;;;;;;38.65;28.45;;;;;;;;;;5027400;28;20095;-60
2022/03/17 02:19:40;;;;;;;33.65;28.58;;;;;;;;;;5027980;28;20040;-60
2022/03/17 02:22:07;;;;;;;29.27;24.13;;;;;;;;;;5026577;28;20046;-62
2022/03/17 02:27:18;;;;;;;33.58;26.48;;;;;;;;;;5039364;28;20666;-62
2022/03/17 02:29:44;;;;;;;32.67;27.75;;;;;;;;;;5024703;28;20037;-61
2022/03/17 02:32:10;;;;;;;32.28;27.23;;;;;;;;;;5007075;28;20309;-62
2022/03/17 02:34:38;;;;;;;37.97;27.42;;;;;;;;;;5008354;28;20049;-62
2022/03/17 02:37:05;;;;;;;33.30;28.27;;;;;;;;;;5025693;28;20041;-61
2022/03/17 02:39:31;;;;;;;32.95;25.73;;;;;;;;;;5026747;28;20049;-62
2022/03/17 02:41:57;;;;;;;33.70;27.10;;;;;;;;;;5025768;28;20587;-62
2022/03/17 02:44:24;;;;;;;33.47;27.23;;;;;;;;;;5026133;28;20112;-62
2022/03/17 02:46:50;;;;;;;30.95;24.30;;;;;;;;;;5025110;28;20046;-62
2022/03/17 02:49:18;;;;;;;33.42;26.05;;;;;;;;;;5027138;28;20116;-60
2022/03/17 02:51:46;;;;;;;34.40;28.55;;;;;;;;;;5026717;28;20085;-62
2022/03/17 02:54:12;;;;;;;33.00;26.35;;;;;;;;;;5025731;28;20129;-61
2022/03/17 02:56:38;;;;;;;31.45;25.48;;;;;;;;;;5025274;28;20048;-61
2022/03/17 02:59:04;;;;;;;28.83;23.42;;;;;;;;;;5024320;28;20048;-63
2022/03/17 03:01:30;;;;;;;34.50;26.67;;;;;;;;;;5026149;28;20088;-62
2022/03/17 03:03:56;;;;;;;33.30;28.58;;;;;;;;;;5024858;28;20033;-63
2022/03/17 03:06:22;;;;;;;32.92;25.95;;;;;;;;;;5025819;28;20227;-62
2022/03/17 03:08:48;;;;;;;33.28;28.23;;;;;;;;;;5023002;28;20160;-61
2022/03/17 03:11:14;;;;;;;36.97;28.17;;;;;;;;;;5025412;28;20045;-61
2022/03/17 03:13:40;;;;;;;34.20;26.70;;;;;;;;;;5024953;28;20041;-61
2022/03/17 03:16:07;;;;;;;35.55;27.58;;;;;;;;;;5024404;28;20084;-62
2022/03/17 03:18:33;;;;;;;36.83;28.63;;;;;;;;;;5024459;28;20045;-61
2022/03/17 03:20:59;;;;;;;33.35;26.77;;;;;;;;;;5041865;28;20107;-61
2022/03/17 03:23:25;;;;;;;31.90;26.70;;;;;;;;;;5025004;28;20654;-62
2022/03/17 03:25:51;;;;;;;34.55;28.27;;;;;;;;;;5023769;28;20103;-63
2022/03/17 03:28:17;;;;;;;35.50;28.35;;;;;;;;;;5026600;28;20550;-63
2022/03/17 03:30:45;;;;;;;34.08;28.38;;;;;;;;;;5006311;28;20046;-61
2022/03/17 03:33:11;;;;;;;31.83;25.48;;;;;;;;;;5026863;28;20116;-62
2022/03/17 03:38:22;;;;;;;33.95;26.85;;;;;;;;;;5026166;28;20060;-61
2022/03/17 03:40:48;;;;;;;32.60;26.58;;;;;;;;;;5025237;28;20064;-61
2022/03/17 03:43:14;;;;;;;33.08;26.60;;;;;;;;;;5026490;28;20399;-61
2022/03/17 03:45:40;;;;;;;31.20;24.67;;;;;;;;;;5026173;28;20630;-62
2022/03/17 03:48:06;;;;;;;34.72;26.13;;;;;;;;;;5025347;28;20049;-62
2022/03/17 03:50:32;;;;;;;33.08;23.90;;;;;;;;;;5026725;28;20045;-62
2022/03/17 03:52:58;;;;;;;32.42;27.08;;;;;;;;;;5025204;28;20443;-62
2022/03/17 03:55:24;;;;;;;29.80;26.13;;;;;;;;;;5024664;28;20041;-62
2022/03/17 03:57:51;;;;;;;28.75;21.90;;;;;;;;;;5023681;28;20092;-62
2022/03/17 04:00:32;;;;;;;32.38;26.02;;;;;;;;;;5025336;28;20049;-61
2022/03/17 04:02:58;;;;;;;30.63;24.90;;;;;;;;;;5026276;28;20072;-61
2022/03/17 04:05:34;;;;;;;30.45;26.55;;;;;;;;;;5024886;28;20095;-61
2022/03/17 04:08:00;;;;;;;30.48;25.30;;;;;;;;;;5024677;28;20046;-63
2022/03/17 04:10:27;;;;;;;29.88;23.73;;;;;;;;;;5026082;28;20041;-62
2022/03/17 04:12:53;;;;;;;32.17;26.75;;;;;;;;;;5025348;28;20120;-62
2022/03/17 04:15:19;;;;;;;30.60;25.65;;;;;;;;;;5026478;28;20389;-63
2022/03/17 04:17:45;;;;;;;30.75;24.75;;;;;;;;;;5025110;28;20048;-62
2022/03/17 04:20:11;;;;;;;32.45;24.77;;;;;;;;;;5025081;28;20125;-62
2022/03/17 04:22:38;;;;;;;29.90;25.17;;;;;;;;;;5026887;28;20064;-62
2022/03/17 04:25:05;;;;;;;27.40;20.25;;;;;;;;;;5023818;28;20058;-62
2022/03/17 04:27:31;;;;;;;29.67;24.65;;;;;;;;;;5028134;28;20038;-62
2022/03/17 04:29:57;;;;;;;29.77;25.95;;;;;;;;;;5028351;28;20044;-61
2022/03/17 04:32:23;;;;;;;29.17;23.25;;;;;;;;;;5028177;28;20087;-62
2022/03/17 04:34:49;;;;;;;32.50;24.67;;;;;;;;;;5028332;28;20064;-61
2022/03/17 04:37:15;;;;;;;31.15;25.42;;;;;;;;;;5028023;28;20071;-63
2022/03/17 04:39:41;;;;;;;32.45;25.95;;;;;;;;;;5028649;28;20041;-62
2022/03/17 04:42:08;;;;;;;30.73;24.95;;;;;;;;;;5027912;28;20033;-61
2022/03/17 04:44:35;;;;;;;31.52;25.63;;;;;;;;;;5029613;28;20051;-61
2022/03/17 04:47:01;;;;;;;34.17;28.13;;;;;;;;;;5029405;28;20064;-62
2022/03/17 04:49:27;;;;;;;32.78;27.08;;;;;;;;;;5028706;28;20495;-62
2022/03/17 04:51:53;;;;;;;34.97;29.40;;;;;;;;;;5029518;28;20045;-62
2022/03/17 04:54:20;;;;;;;35.13;29.08;;;;;;;;;;5027529;28;20041;-63
2022/03/17 04:56:46;;;;;;;34.33;27.65;;;;;;;;;;5028208;28;20442;-63
2022/03/17 04:59:12;;;;;;;35.55;29.48;;;;;;;;;;5029519;28;20479;-61
2022/03/17 05:01:38;;;;;;;36.05;28.83;;;;;;;;;;5027582;28;20080;-62
2022/03/17 05:04:04;;;;;;;35.42;30.70;;;;;;;;;;5011005;28;20399;-62
2022/03/17 05:06:32;;;;;;;33.38;29.23;;;;;;;;;;5028943;28;20384;-62
2022/03/17 05:08:59;;;;;;;40.65;32.92;;;;;;;;;;5027062;28;20558;-63
2022/03/17 05:11:25;;;;;;;46.22;37.08;;;;;;;;;;5010363;28;20064;-62
2022/03/17 05:13:52;;;;;;;46.33;39.08;;;;;;;;;;5026449;28;20513;-63
2022/03/17 05:16:18;;;;;;;53.22;42.78;;;;;;;;;;5026827;28;20036;-63
2022/03/17 05:18:44;;;;;;;51.17;39.03;;;;;;;;;;5027038;28;20060;-63
2022/03/17 05:21:10;;;;;;;60.63;47.40;;;;;;;;;;5027492;28;20041;-63
2022/03/17 05:23:38;;;;;;;66.10;48.47;;;;;;;;;;5026446;28;20053;-63
2022/03/17 05:26:04;;;;;;;64.70;48.95;;;;;;;;;;5026747;28;20049;-64
2022/03/17 05:28:30;;;;;;;71.63;52.90;;;;;;;;;;5028529;28;20130;-64
2022/03/17 05:30:57;;;;;;;69.55;50.60;;;;;;;;;;5028780;28;20041;-64
2022/03/17 05:33:23;;;;;;;70.18;52.20;;;;;;;;;;5026673;28;20041;-63
2022/03/17 05:35:50;;;;;;;69.53;50.25;;;;;;;;;;5027321;28;20067;-64
2022/03/17 05:38:16;;;;;;;80.22;56.65;;;;;;;;;;5027891;28;20042;-63
2022/03/17 05:40:43;;;;;;;77.43;54.38;;;;;;;;;;5028416;28;20029;-63
2022/03/17 05:43:12;;;;;;;82.75;56.85;;;;;;;;;;5027546;28;20112;-63
2022/03/17 05:45:44;;;;;;;89.18;60.72;;;;;;;;;;5026307;28;20052;-63
2022/03/17 05:48:10;;;;;;;82.90;54.40;;;;;;;;;;5027805;28;20056;-62
2022/03/17 05:50:38;;;;;;;93.22;62.20;;;;;;;;;;5026958;28;20091;-63
2022/03/17 05:53:04;;;;;;;98.78;63.97;;;;;;;;;;5007319;28;20042;-63
2022/03/17 05:55:30;;;;;;;104.05;64.68;;;;;;;;;;5026362;28;20270;-62
2022/03/17 05:57:57;;;;;;;56.75;37.20;;;;;;;;;;5010314;28;20087;-63
2022/03/17 06:00:25;;;;;;;15.35;12.50;;;;;;;;;;5026760;28;20053;-63
2022/03/17 06:02:51;;;;;;;14.73;13.15;;;;;;;;;;5026740;28;20055;-62
2022/03/17 06:05:17;;;;;;;13.32;10.15;;;;;;;;;;5028394;28;20080;-61
2022/03/17 06:07:48;;;;;;;13.43;11.65;;;;;;;;;;5026975;28;20411;-63
2022/03/17 06:10:18;;;;;;;8.63;7.65;;;;;;;;;;5026152;28;20049;-63
2022/03/17 06:12:44;;;;;;;12.02;8.68;;;;;;;;;;5028009;28;20547;-63
2022/03/17 06:15:11;;;;;;;11.25;9.68;;;;;;;;;;5026180;28;20081;-61
2022/03/17 06:17:39;;;;;;;14.10;9.55;;;;;;;;;;5026235;28;20057;-63
2022/03/17 06:20:06;;;;;;;13.43;9.25;;;;;;;;;;5028037;28;20040;-64
2022/03/17 06:22:32;;;;;;;19.85;14.68;;;;;;;;;;5025908;28;20111;-63
2022/03/17 06:24:58;;;;;;;23.88;16.20;;;;;;;;;;5027358;28;20238;-63
2022/03/17 06:27:25;;;;;;;30.77;18.73;;;;;;;;;;5042952;28;20053;-64
2022/03/17 06:29:51;;;;;;;25.35;16.13;;;;;;;;;;5026689;28;20550;-62
2022/03/17 06:32:17;;;;;;;33.25;17.73;;;;;;;;;;5026232;28;20114;-63
2022/03/17 06:34:43;;;;;;;25.70;13.25;;;;;;;;;;5026116;28;20033;-64
2022/03/17 06:37:09;;;;;;;18.58;11.07;;;;;;;;;;5027301;28;20490;-62
2022/03/17 06:39:35;;;;;;;23.63;14.73;;;;;;;;;;5027319;28;20124;-64
2022/03/17 06:42:01;;;;;;;19.55;11.13;;;;;;;;;;5026745;28;20503;-64
2022/03/17 06:44:28;;;;;;;20.30;11.45;;;;;;;;;;5027921;28;20108;-63
2022/03/17 06:46:54;;;;;;;21.05;11.35;;;;;;;;;;5029145;28;20479;-63
2022/03/17 06:49:21;;;;;;;24.83;13.35;;;;;;;;;;5025253;28;20116;-64
2022/03/17 06:51:47;;;;;;;22.75;13.23;;;;;;;;;;5028667;28;20647;-63
2022/03/17 06:54:13;;;;;;;17.58;9.10;;;;;;;;;;5028688;28;20037;-62
2022/03/17 06:56:39;;;;;;;25.55;9.35;;;;;;;;;;5028569;28;20041;-62
2022/03/17 06:59:05;;;;;;;18.00;7.15;;;;;;;;;;5042854;28;20136;-63
2022/03/17 07:01:31;;;;;;;20.27;7.78;;;;;;;;;;5025369;28;20044;-63
2022/03/17 07:03:57;;;;;;;21.00;6.35;;;;;;;;;;5026476;28;20155;-63
2022/03/17 07:06:23;;;;;;;15.85;5.15;;;;;;;;;;5010179;28;20053;-62
2022/03/17 07:08:49;;;;;;;10.77;3.25;;;;;;;;;;5025982;28;20037;-63
2022/03/17 07:11:15;;;;;;;18.30;4.10;;;;;;;;;;5027506;28;20079;-63
2022/03/17 07:13:41;;;;;;;13.45;3.03;;;;;;;;;;5010995;28;20041;-63
2022/03/17 07:16:09;;;;;;;10.82;3.00;;;;;;;;;;5026876;28;20560;-63
2022/03/17 07:18:35;;;;;;;15.32;3.25;;;;;;;;;;5027607;28;20049;-63
2022/03/17 07:21:01;;;;;;;11.48;1.80;;;;;;;;;;5027697;28;20045;-63
2022/03/17 07:23:27;;;;;;;6.47;1.73;;;;;;;;;;5026840;28;20551;-61
2022/03/17 07:25:53;;;;;;;12.57;1.83;;;;;;;;;;5025946;28;20052;-62
2022/03/17 07:28:21;;;;;;;8.63;1.27;;;;;;;;;;5027215;28;20037;-62
2022/03/17 07:30:47;;;;;;;14.38;1.75;;;;;;;;;;5027855;28;20037;-62
2022/03/17 07:33:13;;;;;;;10.70;1.55;;;;;;;;;;5026411;28;20116;-62
2022/03/17 07:35:40;;;;;;;11.57;1.70;;;;;;;;;;5026571;28;20053;-63
2022/03/17 07:38:06;;;;;;;5.65;0.88;;;;;;;;;;5026129;28;20088;-63
2022/03/17 07:40:33;;;;;;;12.57;1.30;;;;;;;;;;5026912;28;20045;-61
2022/03/17 07:43:02;;;;;;;6.28;0.82;;;;;;;;;;5025162;28;20467;-63
2022/03/17 07:45:28;;;;;;;7.72;0.70;;;;;;;;;;5024899;28;20054;-63
2022/03/17 07:47:54;;;;;;;8.50;0.80;;;;;;;;;;5025404;28;20049;-63
2022/03/17 07:50:21;;;;;;;9.90;1.00;;;;;;;;;;5026911;28;20120;-62
2022/03/17 07:52:47;;;;;;;7.72;1.00;;;;;;;;;;5023629;28;20048;-61
2022/03/17 07:55:13;;;;;;;11.48;0.90;;;;;;;;;;5026161;28;20442;-62
2022/03/17 07:57:39;;;;;;;8.95;0.80;;;;;;;;;;5027087;28;20045;-62
2022/03/17 08:00:07;;;;;;;10.25;0.98;;;;;;;;;;5025464;28;20051;-61
2022/03/17 08:02:33;;;;;;;10.23;0.85;;;;;;;;;;5027230;28;20207;-63
2022/03/17 08:05:01;;;;;;;9.23;0.70;;;;;;;;;;5029663;28;20037;-62
2022/03/17 08:07:28;;;;;;;11.10;0.70;;;;;;;;;;5031139;28;20399;-62
2022/03/17 08:09:54;;;;;;;11.13;0.80;;;;;;;;;;5030293;28;20052;-61
2022/03/17 08:12:22;;;;;;;8.45;0.80;;;;;;;;;;5029622;28;20049;-61
2022/03/17 08:14:50;;;;;;;10.23;0.70;;;;;;;;;;5031078;28;20046;-62
2022/03/17 08:17:16;;;;;;;7.28;0.98;;;;;;;;;;5031102;28;20176;-60
2022/03/17 08:19:42;;;;;;;10.65;0.65;;;;;;;;;;5031836;28;20041;-62
2022/03/17 08:22:08;;;;;;;11.20;0.60;;;;;;;;;;5032228;28;20040;-62
2022/03/17 08:24:34;;;;;;;10.40;1.23;;;;;;;;;;5031350;28;20057;-60
2022/03/17 08:27:02;;;;;;;11.40;1.15;;;;;;;;;;5015332;28;20060;-60
2022/03/17 08:29:29;;;;;;;13.45;1.35;;;;;;;;;;5031937;28;20052;-60
2022/03/17 08:31:55;;;;;;;12.38;0.80;;;;;;;;;;5031941;28;20076;-60
2022/03/17 08:34:21;;;;;;;14.23;1.52;;;;;;;;;;5033631;28;20150;-59
2022/03/17 08:36:49;;;;;;;16.48;1.40;;;;;;;;;;5032969;28;20549;-59
2022/03/17 08:39:15;;;;;;;17.48;1.35;;;;;;;;;;5031754;28;20625;-62
2022/03/17 08:41:42;;;;;;;23.50;2.40;;;;;;;;;;5031687;28;20052;-62
2022/03/17 08:44:08;;;;;;;15.73;1.48;;;;;;;;;;5030622;28;20092;-61
2022/03/17 08:49:18;;;;;;;16.50;1.90;;;;;;;;;;5032084;28;20103;-62
2022/03/17 08:51:45;;;;;;;15.70;1.80;;;;;;;;;;5029877;28;20366;-61
2022/03/17 08:54:11;;;;;;;18.67;2.13;;;;;;;;;;5029979;28;20049;-62
2022/03/17 08:56:38;;;;;;;22.92;2.10;;;;;;;;;;5013867;28;20352;-61
2022/03/17 08:59:04;;;;;;;22.90;2.25;;;;;;;;;;5031795;28;20491;-63
2022/03/17 09:01:30;;;;;;;24.70;2.28;;;;;;;;;;5030025;28;20045;-61
2022/03/17 09:03:56;;;;;;;19.05;1.92;;;;;;;;;;5030420;28;20057;-61
2022/03/17 09:06:24;;;;;;;22.10;1.80;;;;;;;;;;5014100;28;20069;-60
2022/03/17 09:08:50;;;;;;;22.80;2.80;;;;;;;;;;5031829;28;20045;-61
2022/03/17 09:11:16;;;;;;;12.50;1.30;;;;;;;;;;5031518;28;20042;-61
2022/03/17 09:13:42;;;;;;;13.95;1.52;;;;;;;;;;5030943;28;20383;-61
2022/03/17 09:16:08;;;;;;;18.23;1.80;;;;;;;;;;5031568;28;20045;-61
2022/03/17 09:18:35;;;;;;;14.60;1.52;;;;;;;;;;5029971;28;20450;-61
2022/03/17 09:21:03;;;;;;;12.73;1.45;;;;;;;;;;5030742;28;20045;-61
2022/03/17 09:23:29;;;;;;;16.10;1.77;;;;;;;;;;5029680;28;20045;-61
2022/03/17 09:25:55;;;;;;;14.82;1.88;;;;;;;;;;5029553;28;20049;-61
2022/03/17 09:28:22;;;;;;;17.85;1.30;;;;;;;;;;5029680;28;20049;-62
2022/03/17 09:30:50;;;;;;;22.35;2.10;;;;;;;;;;5029005;28;20041;-63
2022/03/17 09:33:16;;;;;;;12.57;1.52;;;;;;;;;;5027545;28;20124;-62
2022/03/17 09:35:42;;;;;;;13.85;1.25;;;;;;;;;;5028728;28;20076;-61
2022/03/17 09:38:08;;;;;;;14.38;1.60;;;;;;;;;;5029868;28;20084;-61
2022/03/17 09:40:38;;;;;;;15.85;1.45;;;;;;;;;;5029353;28;20099;-61
2022/03/17 09:45:54;;;;;;;16.50;1.33;;;;;;;;;;5027607;28;20076;-61
2022/03/17 09:48:21;;;;;;;14.25;1.23;;;;;;;;;;5029366;28;20420;-61
2022/03/17 09:50:47;;;;;;;18.48;1.88;;;;;;;;;;5029003;28;20041;-61
2022/03/17 09:53:14;;;;;;;17.35;1.90;;;;;;;;;;5030362;28;20085;-61
2022/03/17 09:55:43;;;;;;;17.65;1.75;;;;;;;;;;5029584;28;20052;-61
2022/03/17 09:58:10;;;;;;;15.75;1.55;;;;;;;;;;5017565;28;20107;-62
2022/03/17 10:00:48;;;;;;;22.83;2.47;;;;;;;;;;5027327;28;20087;-63
2022/03/17 10:03:18;;;;;;;14.80;1.80;;;;;;;;;;5026009;28;20084;-62
2022/03/17 10:05:48;;;;;;;20.52;2.42;;;;;;;;;;5026776;28;20041;-62
2022/03/17 10:08:15;;;;;;;18.40;1.88;;;;;;;;;;5028701;28;20037;-62
2022/03/17 10:10:43;;;;;;;20.42;1.55;;;;;;;;;;5028652;28;20041;-62
2022/03/17 10:13:14;;;;;;;8.63;1.00;;;;;;;;;;5028949;28;20432;-61
2022/03/17 10:15:40;;;;;;;12.32;1.50;;;;;;;;;;5028703;28;20057;-61
2022/03/17 10:18:20;;;;;;;14.93;1.70;;;;;;;;;;5027111;28;20056;-61
2022/03/17 10:20:47;;;;;;;15.68;1.23;;;;;;;;;;5027151;28;20128;-62
2022/03/17 10:23:13;;;;;;;13.88;1.73;;;;;;;;;;5043400;28;20100;-62
2022/03/17 10:25:39;;;;;;;12.05;1.27;;;;;;;;;;5027469;28;20053;-61
2022/03/17 10:28:07;;;;;;;16.10;1.92;;;;;;;;;;5026442;28;20052;-61
2022/03/17 10:30:35;;;;;;;13.50;1.70;;;;;;;;;;5026665;28;20049;-61
2022/03/17 10:33:06;;;;;;;15.23;1.92;;;;;;;;;;5027713;28;20198;-61
2022/03/17 10:35:36;;;;;;;11.00;1.30;;;;;;;;;;5029680;28;20041;-61
2022/03/17 10:38:09;;;;;;;13.15;1.85;;;;;;;;;;5029564;28;20459;-60
2022/03/17 10:40:35;;;;;;;19.10;2.35;;;;;;;;;;5029603;28;20050;-62
2022/03/17 10:43:22;;;;;;;17.00;1.65;;;;;;;;;;5029583;28;20424;-61
2022/03/17 10:45:48;;;;;;;14.07;1.42;;;;;;;;;;5029226;28;20554;-61
2022/03/17 10:48:14;;;;;;;13.52;1.48;;;;;;;;;;5028116;28;20561;-62
2022/03/17 10:50:42;;;;;;;19.15;1.88;;;;;;;;;;5029638;28;20045;-61
2022/03/17 10:53:08;;;;;;;18.30;1.85;;;;;;;;;;5027560;28;20047;-61
2022/03/17 10:55:35;;;;;;;17.38;2.30;;;;;;;;;;5026981;28;20045;-61
2022/03/17 10:58:11;;;;;;;15.65;1.60;;;;;;;;;;5027671;28;20581;-62
2022/03/17 11:00:45;;;;;;;17.08;2.58;;;;;;;;;;5025722;28;20037;-62
2022/03/17 11:03:11;;;;;;;;;;;;;;;;;;5027736;28;20044;-61
2022/03/17 11:05:37;;;;;;;14.48;1.38;;;;;;;;;;5026160;28;19921;-61
2022/03/17 11:08:04;;;;;;;15.15;1.63;;;;;;;;;;5027705;28;20527;-61
2022/03/17 11:10:30;;;;;;;16.85;1.80;;;;;;;;;;5026924;28;20049;-62
2022/03/17 11:12:58;;;;;;;13.98;1.98;;;;;;;;;;5027887;28;20105;-62
2022/03/17 11:15:28;;;;;;;17.20;1.90;;;;;;;;;;5025651;28;20046;-60
2022/03/17 11:17:55;;;;;;;13.48;1.50;;;;;;;;;;5026631;28;20111;-60
2022/03/17 11:20:23;;;;;;;12.60;1.27;;;;;;;;;;5038113;28;20044;-62
2022/03/17 11:23:06;;;;;;;9.90;1.00;;;;;;;;;;5027873;28;20038;-61
2022/03/17 11:25:34;;;;;;;14.07;1.88;;;;;;;;;;5025382;28;20093;-61
2022/03/17 11:28:01;;;;;;;14.88;1.92;;;;;;;;;;5025668;28;20057;-61
2022/03/17 11:30:43;;;;;;;16.40;2.22;;;;;;;;;;5027569;28;20064;-61
2022/03/17 11:33:27;;;;;;;16.40;1.80;;;;;;;;;;5023167;28;20044;-62
2022/03/17 11:35:59;;;;;;;10.38;1.23;;;;;;;;;;5028333;28;20041;-62
2022/03/17 11:38:27;;;;;;;11.02;1.38;;;;;;;;;;5014462;28;20045;-62
2022/03/17 11:41:16;;;;;;;13.70;1.42;;;;;;;;;;5032007;28;20033;-62
2022/03/17 11:43:47;;;;;;;15.00;1.33;;;;;;;;;;5031814;28;20041;-61
2022/03/17 11:46:18;;;;;;;13.65;1.60;;;;;;;;;;5029243;28;20049;-62
2022/03/17 11:48:45;;;;;;;12.05;1.30;;;;;;;;;;5031267;28;20120;-63
2022/03/17 11:51:12;;;;;;;11.50;1.08;;;;;;;;;;5029110;28;20037;-62
2022/03/17 11:53:58;;;;;;;13.07;1.52;;;;;;;;;;5030158;28;20395;-62
2022/03/17 11:56:38;;;;;;;11.43;1.45;;;;;;;;;;5032190;28;20116;-62
2022/03/17 11:59:07;;;;;;;15.43;1.85;;;;;;;;;;5027230;28;20144;-62
2022/03/17 12:01:34;;;;;;;12.38;1.63;;;;;;;;;;5029560;28;20033;-62
2022/03/17 12:04:07;;;;;;;12.00;1.40;;;;;;;;;;5031724;28;20514;-61
2022/03/17 12:06:34;;;;;;;11.18;1.30;;;;;;;;;;5030902;28;20116;-63
2022/03/17 12:09:01;;;;;;;13.15;1.80;;;;;;;;;;5031330;28;20049;-62
2022/03/17 12:11:27;;;;;;;12.02;1.63;;;;;;;;;;5030110;28;20689;-62
2022/03/17 12:14:14;;;;;;;11.25;1.42;;;;;;;;;;5031963;28;20299;-60
2022/03/17 12:16:41;;;;;;;11.57;1.23;;;;;;;;;;5028068;28;20033;-60
2022/03/17 12:19:07;;;;;;;9.63;1.40;;;;;;;;;;5029686;28;20108;-60
2022/03/17 12:21:52;;;;;;;13.80;1.65;;;;;;;;;;5030884;28;20047;-61
2022/03/17 12:24:34;;;;;;;13.73;1.52;;;;;;;;;;5029709;28;20050;-60
2022/03/17 12:27:11;;;;;;;14.18;1.75;;;;;;;;;;5030118;28;20049;-60
2022/03/17 12:29:37;;;;;;;9.13;0.95;;;;;;;;;;5029149;28;20192;-61
2022/03/17 12:32:07;;;;;;;10.10;1.70;;;;;;;;;;5031409;28;20071;-60
2022/03/17 12:34:34;;;;;;;12.05;1.30;;;;;;;;;;5028376;28;20100;-60
2022/03/17 12:37:01;;;;;;;13.55;1.35;;;;;;;;;;5031456;28;20045;-60
2022/03/17 12:39:28;;;;;;;20.40;2.05;;;;;;;;;;5030543;28;20037;-61
2022/03/17 12:41:55;;;;;;;11.68;1.30;;;;;;;;;;5029666;28;20429;-60
2022/03/17 12:44:25;;;;;;;12.02;1.50;;;;;;;;;;5031367;28;20029;-60
2022/03/17 12:46:54;;;;;;;10.32;1.40;;;;;;;;;;5014507;28;20041;-60
2022/03/17 12:49:21;;;;;;;13.70;1.35;;;;;;;;;;5030106;28;20128;-60
2022/03/17 12:51:50;;;;;;;7.10;0.88;;;;;;;;;;5031838;28;20406;-60
2022/03/17 12:54:17;;;;;;;9.40;1.15;;;;;;;;;;5029498;28;20037;-61
2022/03/17 12:56:50;;;;;;;9.18;1.02;;;;;;;;;;5030474;28;20152;-60
2022/03/17 12:59:16;;;;;;;10.30;1.23;;;;;;;;;;5028901;28;20487;-59
2022/03/17 13:01:43;;;;;;;9.50;0.90;;;;;;;;;;5031959;28;20514;-60
2022/03/17 13:04:09;;;;;;;7.88;1.13;;;;;;;;;;5030320;28;20111;-61
2022/03/17 13:06:54;;;;;;;8.75;0.88;;;;;;;;;;5030560;28;20040;-60
2022/03/17 13:09:30;;;;;;;7.25;0.93;;;;;;;;;;5030545;28;20053;-60
2022/03/17 13:15:04;;;;;;;8.53;0.80;;;;;;;;;;5030353;28;20045;-60
2022/03/17 13:17:38;;;;;;;8.45;0.70;;;;;;;;;;5028407;28;20080;-60
2022/03/17 13:20:08;;;;;;;8.30;0.75;;;;;;;;;;5030264;28;20046;-61
2022/03/17 13:22:39;;;;;;;6.90;1.05;;;;;;;;;;5029057;28;20033;-61
2022/03/17 13:25:07;;;;;;;8.65;1.10;;;;;;;;;;5029380;28;20049;-61
2022/03/17 13:27:38;;;;;;;9.65;0.90;;;;;;;;;;5031447;28;20076;-60
2022/03/17 13:30:09;;;;;;;7.50;0.68;;;;;;;;;;5029954;28;20041;-61
2022/03/17 13:32:35;;;;;;;6.68;0.70;;;;;;;;;;5027326;28;21329;-62
2022/03/17 13:35:01;;;;;;;10.82;0.98;;;;;;;;;;5025866;28;20065;-61
2022/03/17 13:37:35;;;;;;;9.10;1.20;;;;;;;;;;5029542;28;20052;-60
2022/03/17 13:40:03;;;;;;;7.15;0.60;;;;;;;;;;5026111;28;20041;-61
2022/03/17 13:42:29;;;;;;;8.32;0.80;;;;;;;;;;5011372;28;20116;-61
2022/03/17 13:44:55;;;;;;;7.38;1.02;;;;;;;;;;5028581;28;20037;-61
2022/03/17 13:47:26;;;;;;;10.77;1.00;;;;;;;;;;5028594;28;20048;-61
2022/03/17 13:50:08;;;;;;;9.18;0.70;;;;;;;;;;5027151;28;20049;-62
2022/03/17 13:52:34;;;;;;;8.35;0.82;;;;;;;;;;5029462;28;20042;-62
2022/03/17 13:55:00;;;;;;;10.30;1.05;;;;;;;;;;5028463;28;20037;-61
2022/03/17 13:57:27;;;;;;;8.82;0.82;;;;;;;;;;5029037;28;20131;-62
2022/03/17 13:59:53;;;;;;;9.60;1.10;;;;;;;;;;5030584;28;20045;-62
2022/03/17 14:02:22;;;;;;;7.40;0.80;;;;;;;;;;5030221;28;20831;-62
2022/03/17 14:04:55;;;;;;;9.98;0.90;;;;;;;;;;5029482;28;20514;-62
2022/03/17 14:07:21;;;;;;;9.20;0.88;;;;;;;;;;5030254;28;20046;-62
2022/03/17 14:09:47;;;;;;;10.35;1.08;;;;;;;;;;5030708;28;20084;-62
2022/03/17 14:12:14;;;;;;;7.43;0.90;;;;;;;;;;5028794;28;20046;-62
2022/03/17 14:14:40;;;;;;;9.68;0.90;;;;;;;;;;5030259;28;20049;-61
2022/03/17 14:17:10;;;;;;;9.63;0.90;;;;;;;;;;5030517;28;20045;-62
2022/03/17 14:19:36;;;;;;;8.25;0.70;;;;;;;;;;5030147;28;20045;-62
2022/03/17 14:24:47;;;;;;;7.80;0.50;;;;;;;;;;5028956;28;20053;-61
2022/03/17 14:27:13;;;;;;;6.22;0.50;;;;;;;;;;5028526;28;20187;-61
2022/03/17 14:29:39;;;;;;;6.13;0.50;;;;;;;;;;5012036;28;20050;-60
2022/03/17 14:32:05;;;;;;;7.07;0.68;;;;;;;;;;5029879;28;20041;-62
2022/03/17 14:34:31;;;;;;;7.55;0.68;;;;;;;;;;5028741;28;20255;-62
2022/03/17 14:36:57;;;;;;;6.55;0.60;;;;;;;;;;5029762;28;20052;-61
2022/03/17 14:39:23;;;;;;;6.93;0.65;;;;;;;;;;5028323;28;20077;-63
2022/03/17 14:41:52;;;;;;;6.63;0.57;;;;;;;;;;5029663;28;20095;-62
2022/03/17 14:44:18;;;;;;;7.63;0.82;;;;;;;;;;5028653;28;20064;-61
2022/03/17 14:46:44;;;;;;;7.00;0.60;;;;;;;;;;5029873;28;20458;-61
2022/03/17 14:49:10;;;;;;;8.50;1.25;;;;;;;;;;5028350;28;20041;-62
2022/03/17 14:51:38;;;;;;;5.50;0.52;;;;;;;;;;5028305;28;20045;-61